sensor_id;sensor_type;location;lat;lon;timestamp;pressure;altitude;pressure_sealevel;temperature;humidity
70555;BME280;58104;52.744;15.242;2022-10-16T00:02:17;100501.98;;;18.34;60.02
70555;BME280;58104;52.744;15.242;2022-10-16T00:04:43;100503.39;;;18.35;59.94
70555;BME280;58104;52.744;15.242;2022-10-16T00:07:08;100505.41;;;18.33;60.30
70555;BME280;58104;52.744;15.242;2022-10-16T00:09:33;100504.10;;;18.39;60.05
70555;BME280;58104;52.744;15.242;2022-10-16T00:11:58;100506.74;;;18.64;59.44
70555;BME280;58104;52.744;15.242;2022-10-16T00:14:24;100506.47;;;18.48;59.75
70555;BME280;58104;52.744;15.242;2022-10-16T00:16:50;100508.42;;;18.32;60.12
70555;BME280;58104;52.744;15.242;2022-10-16T00:19:15;100508.83;;;18.50;59.50
70555;BME280;58104;52.744;15.242;2022-10-16T00:21:40;100509.55;;;18.61;58.88
70555;BME280;58104;52.744;15.242;2022-10-16T00:24:08;100512.64;;;18.43;59.48
70555;BME280;58104;52.744;15.242;2022-10-16T00:26:33;100516.60;;;18.52;59.44
70555;BME280;58104;52.744;15.242;2022-10-16T00:28:57;100513.20;;;18.36;59.74
70555;BME280;58104;52.744;15.242;2022-10-16T00:31:22;100517.43;;;18.60;59.11
70555;BME280;58104;52.744;15.242;2022-10-16T00:33:48;100519.70;;;18.46;59.14
70555;BME280;58104;52.744;15.242;2022-10-16T00:36:16;100523.13;;;18.45;59.35
70555;BME280;58104;52.744;15.242;2022-10-16T00:38:39;100528.04;;;18.62;58.87
70555;BME280;58104;52.744;15.242;2022-10-16T00:41:05;100528.92;;;18.43;59.14
70555;BME280;58104;52.744;15.242;2022-10-16T00:43:36;100525.84;;;18.63;58.85
70555;BME280;58104;52.744;15.242;2022-10-16T00:45:55;100525.35;;;18.68;58.63
70555;BME280;58104;52.744;15.242;2022-10-16T00:48:20;100522.28;;;18.71;58.83
70555;BME280;58104;52.744;15.242;2022-10-16T00:50:46;100525.35;;;18.80;58.03
70555;BME280;58104;52.744;15.242;2022-10-16T00:53:11;100522.55;;;18.55;59.07
70555;BME280;58104;52.744;15.242;2022-10-16T00:55:36;100524.77;;;18.59;58.98
70555;BME280;58104;52.744;15.242;2022-10-16T00:58:02;100530.48;;;18.76;58.82
70555;BME280;58104;52.744;15.242;2022-10-16T01:00:27;100528.76;;;18.73;59.15
70555;BME280;58104;52.744;15.242;2022-10-16T01:02:54;100531.58;;;18.43;59.73
70555;BME280;58104;52.744;15.242;2022-10-16T01:05:18;100527.95;;;18.52;59.63
70555;BME280;58104;52.744;15.242;2022-10-16T01:07:49;100533.97;;;18.45;59.78
70555;BME280;58104;52.744;15.242;2022-10-16T01:10:17;100535.14;;;18.50;59.80
70555;BME280;58104;52.744;15.242;2022-10-16T01:12:40;100538.29;;;18.53;59.44
70555;BME280;58104;52.744;15.242;2022-10-16T01:15:04;100542.17;;;18.88;58.33
70555;BME280;58104;52.744;15.242;2022-10-16T01:17:31;100541.58;;;18.50;59.71
70555;BME280;58104;52.744;15.242;2022-10-16T01:20:03;100538.17;;;18.61;59.50
70555;BME280;58104;52.744;15.242;2022-10-16T01:22:18;100539.35;;;18.69;59.25
70555;BME280;58104;52.744;15.242;2022-10-16T01:24:45;100543.59;;;18.52;59.37
70555;BME280;58104;52.744;15.242;2022-10-16T01:27:09;100554.03;;;18.31;60.31
70555;BME280;58104;52.744;15.242;2022-10-16T01:29:36;100554.52;;;18.38;60.33
70555;BME280;58104;52.744;15.242;2022-10-16T01:32:00;100555.33;;;18.46;59.82
70555;BME280;58104;52.744;15.242;2022-10-16T01:34:31;100553.18;;;18.35;59.96
70555;BME280;58104;52.744;15.242;2022-10-16T01:36:52;100554.43;;;18.43;59.79
70555;BME280;58104;52.744;15.242;2022-10-16T01:39:15;100549.16;;;18.77;58.73
70555;BME280;58104;52.744;15.242;2022-10-16T01:41:43;100550.21;;;18.41;59.98
70555;BME280;58104;52.744;15.242;2022-10-16T01:44:07;100550.96;;;18.66;59.00
70555;BME280;58104;52.744;15.242;2022-10-16T01:46:31;100549.83;;;18.46;59.51
70555;BME280;58104;52.744;15.242;2022-10-16T01:48:55;100546.51;;;18.44;59.94
70555;BME280;58104;52.744;15.242;2022-10-16T01:51:21;100550.04;;;18.28;59.93
70555;BME280;58104;52.744;15.242;2022-10-16T01:53:48;100548.23;;;18.63;58.80
70555;BME280;58104;52.744;15.242;2022-10-16T01:56:12;100551.64;;;18.70;58.85
70555;BME280;58104;52.744;15.242;2022-10-16T01:58:40;100549.73;;;18.60;59.28
70555;BME280;58104;52.744;15.242;2022-10-16T02:01:02;100550.10;;;18.72;58.74
70555;BME280;58104;52.744;15.242;2022-10-16T02:03:27;100544.97;;;18.34;59.84
70555;BME280;58104;52.744;15.242;2022-10-16T02:05:54;100543.53;;;18.36;59.62
70555;BME280;58104;52.744;15.242;2022-10-16T02:08:18;100546.64;;;18.42;59.40
70555;BME280;58104;52.744;15.242;2022-10-16T02:10:43;100549.81;;;18.50;59.37
70555;BME280;58104;52.744;15.242;2022-10-16T02:13:12;100551.81;;;18.51;58.98
70555;BME280;58104;52.744;15.242;2022-10-16T02:15:33;100555.23;;;18.50;58.97
70555;BME280;58104;52.744;15.242;2022-10-16T02:17:59;100558.63;;;18.52;59.47
70555;BME280;58104;52.744;15.242;2022-10-16T02:20:27;100556.36;;;18.83;58.36
70555;BME280;58104;52.744;15.242;2022-10-16T02:22:50;100564.01;;;18.69;58.75
70555;BME280;58104;52.744;15.242;2022-10-16T02:25:18;100565.97;;;18.40;59.68
70555;BME280;58104;52.744;15.242;2022-10-16T02:27:47;100556.27;;;18.60;58.77
70555;BME280;58104;52.744;15.242;2022-10-16T02:30:09;100555.62;;;18.67;58.70
70555;BME280;58104;52.744;15.242;2022-10-16T02:32:33;100561.67;;;18.56;59.26
70555;BME280;58104;52.744;15.242;2022-10-16T02:34:57;100565.95;;;18.78;58.30
70555;BME280;58104;52.744;15.242;2022-10-16T02:37:21;100570.07;;;18.67;58.75
70555;BME280;58104;52.744;15.242;2022-10-16T02:39:47;100568.73;;;18.77;58.31
70555;BME280;58104;52.744;15.242;2022-10-16T02:42:14;100568.77;;;18.60;58.94
70555;BME280;58104;52.744;15.242;2022-10-16T02:44:39;100565.46;;;18.61;58.97
70555;BME280;58104;52.744;15.242;2022-10-16T02:47:04;100565.48;;;18.50;59.07
70555;BME280;58104;52.744;15.242;2022-10-16T02:49:29;100570.67;;;18.44;59.22
70555;BME280;58104;52.744;15.242;2022-10-16T02:51:54;100576.94;;;18.86;57.96
70555;BME280;58104;52.744;15.242;2022-10-16T02:54:20;100578.03;;;18.49;59.10
70555;BME280;58104;52.744;15.242;2022-10-16T02:56:46;100579.41;;;18.44;59.44
70555;BME280;58104;52.744;15.242;2022-10-16T02:59:11;100577.60;;;18.73;58.50
70555;BME280;58104;52.744;15.242;2022-10-16T03:01:37;100585.21;;;18.52;58.88
70555;BME280;58104;52.744;15.242;2022-10-16T03:04:02;100584.61;;;18.53;58.95
70555;BME280;58104;52.744;15.242;2022-10-16T03:06:27;100587.13;;;18.48;59.12
70555;BME280;58104;52.744;15.242;2022-10-16T03:08:53;100596.03;;;18.66;58.49
70555;BME280;58104;52.744;15.242;2022-10-16T03:11:18;100600.82;;;18.53;58.87
70555;BME280;58104;52.744;15.242;2022-10-16T03:13:43;100599.71;;;18.68;58.25
70555;BME280;58104;52.744;15.242;2022-10-16T03:16:09;100600.98;;;18.32;59.40
70555;BME280;58104;52.744;15.242;2022-10-16T03:18:34;100597.21;;;18.37;59.39
70555;BME280;58104;52.744;15.242;2022-10-16T03:20:59;100597.92;;;18.84;57.93
70555;BME280;58104;52.744;15.242;2022-10-16T03:23:25;100600.58;;;18.50;59.08
70555;BME280;58104;52.744;15.242;2022-10-16T03:25:51;100600.47;;;18.39;59.41
70555;BME280;58104;52.744;15.242;2022-10-16T03:28:16;100601.52;;;18.36;59.18
70555;BME280;58104;52.744;15.242;2022-10-16T03:30:43;100603.31;;;18.55;58.71
70555;BME280;58104;52.744;15.242;2022-10-16T03:33:06;100603.10;;;18.82;58.37
70555;BME280;58104;52.744;15.242;2022-10-16T03:35:32;100601.86;;;18.33;59.59
70555;BME280;58104;52.744;15.242;2022-10-16T03:37:57;100602.56;;;18.50;58.89
70555;BME280;58104;52.744;15.242;2022-10-16T03:40:22;100605.16;;;18.45;59.19
70555;BME280;58104;52.744;15.242;2022-10-16T03:42:48;100599.44;;;18.47;59.08
70555;BME280;58104;52.744;15.242;2022-10-16T03:45:13;100605.59;;;18.75;58.36
70555;BME280;58104;52.744;15.242;2022-10-16T03:47:39;100612.20;;;18.67;58.68
70555;BME280;58104;52.744;15.242;2022-10-16T03:50:05;100612.45;;;18.20;60.40
70555;BME280;58104;52.744;15.242;2022-10-16T03:52:30;100622.94;;;18.41;59.61
70555;BME280;58104;52.744;15.242;2022-10-16T03:54:55;100620.36;;;18.53;59.08
70555;BME280;58104;52.744;15.242;2022-10-16T03:57:20;100625.61;;;18.31;59.67
70555;BME280;58104;52.744;15.242;2022-10-16T03:59:46;100623.06;;;18.43;59.93
70555;BME280;58104;52.744;15.242;2022-10-16T04:02:12;100621.74;;;18.50;59.52
70555;BME280;58104;52.744;15.242;2022-10-16T04:04:37;100620.33;;;18.33;59.55
70555;BME280;58104;52.744;15.242;2022-10-16T04:07:02;100623.13;;;18.75;58.50
70555;BME280;58104;52.744;15.242;2022-10-16T04:09:28;100627.39;;;18.50;59.15
70555;BME280;58104;52.744;15.242;2022-10-16T04:11:53;100632.41;;;18.73;58.49
70555;BME280;58104;52.744;15.242;2022-10-16T04:14:19;100636.95;;;18.52;59.45
70555;BME280;58104;52.744;15.242;2022-10-16T04:16:44;100634.02;;;18.23;60.17
70555;BME280;58104;52.744;15.242;2022-10-16T04:19:10;100644.46;;;18.44;59.15
70555;BME280;58104;52.744;15.242;2022-10-16T04:21:35;100652.15;;;18.62;58.84
70555;BME280;58104;52.744;15.242;2022-10-16T04:24:01;100655.08;;;18.42;59.74
70555;BME280;58104;52.744;15.242;2022-10-16T04:26:26;100654.92;;;18.52;59.71
70555;BME280;58104;52.744;15.242;2022-10-16T04:28:52;100644.95;;;18.56;59.55
70555;BME280;58104;52.744;15.242;2022-10-16T04:31:17;100647.99;;;19.00;58.35
70555;BME280;58104;52.744;15.242;2022-10-16T04:33:43;100651.69;;;19.01;57.99
70555;BME280;58104;52.744;15.242;2022-10-16T04:36:08;100658.05;;;18.29;60.13
70555;BME280;58104;52.744;15.242;2022-10-16T04:38:33;100655.08;;;18.45;59.79
70555;BME280;58104;52.744;15.242;2022-10-16T04:40:58;100656.70;;;18.61;59.37
70555;BME280;58104;52.744;15.242;2022-10-16T04:43:23;100653.97;;;18.69;58.85
70555;BME280;58104;52.744;15.242;2022-10-16T04:45:49;100654.76;;;18.75;58.71
70555;BME280;58104;52.744;15.242;2022-10-16T04:48:14;100647.93;;;18.71;59.03
70555;BME280;58104;52.744;15.242;2022-10-16T04:50:41;100645.42;;;18.42;59.70
70555;BME280;58104;52.744;15.242;2022-10-16T04:53:06;100648.98;;;18.72;58.78
70555;BME280;58104;52.744;15.242;2022-10-16T04:55:31;100651.11;;;18.42;59.52
70555;BME280;58104;52.744;15.242;2022-10-16T04:57:57;100658.18;;;18.85;58.50
70555;BME280;58104;52.744;15.242;2022-10-16T05:00:22;100656.07;;;18.52;59.13
70555;BME280;58104;52.744;15.242;2022-10-16T05:02:49;100658.77;;;18.71;58.82
70555;BME280;58104;52.744;15.242;2022-10-16T05:05:13;100661.69;;;18.47;59.42
70555;BME280;58104;52.744;15.242;2022-10-16T05:07:39;100663.30;;;18.70;58.90
70555;BME280;58104;52.744;15.242;2022-10-16T05:10:05;100669.41;;;18.95;58.26
70555;BME280;58104;52.744;15.242;2022-10-16T05:12:30;100668.97;;;18.92;58.03
70555;BME280;58104;52.744;15.242;2022-10-16T05:14:56;100673.81;;;18.96;58.21
70555;BME280;58104;52.744;15.242;2022-10-16T05:17:21;100673.12;;;18.89;58.38
70555;BME280;58104;52.744;15.242;2022-10-16T05:19:46;100675.73;;;18.96;58.30
70555;BME280;58104;52.744;15.242;2022-10-16T05:22:12;100678.08;;;18.69;58.62
70555;BME280;58104;52.744;15.242;2022-10-16T05:24:37;100681.13;;;18.64;59.68
70555;BME280;58104;52.744;15.242;2022-10-16T05:27:02;100677.05;;;18.65;59.53
70555;BME280;58104;52.744;15.242;2022-10-16T05:29:28;100677.51;;;18.64;59.75
70555;BME280;58104;52.744;15.242;2022-10-16T05:31:53;100676.92;;;18.47;60.06
70555;BME280;58104;52.744;15.242;2022-10-16T05:34:19;100673.22;;;18.55;59.80
70555;BME280;58104;52.744;15.242;2022-10-16T05:36:44;100681.16;;;18.62;59.52
70555;BME280;58104;52.744;15.242;2022-10-16T05:39:09;100681.27;;;18.01;61.89
70555;BME280;58104;52.744;15.242;2022-10-16T05:41:35;100683.20;;;18.12;61.15
70555;BME280;58104;52.744;15.242;2022-10-16T05:44:00;100686.68;;;18.01;61.37
70555;BME280;58104;52.744;15.242;2022-10-16T05:46:25;100686.10;;;18.43;60.29
70555;BME280;58104;52.744;15.242;2022-10-16T05:48:52;100688.30;;;18.70;59.55
70555;BME280;58104;52.744;15.242;2022-10-16T05:51:16;100687.39;;;18.75;59.67
70555;BME280;58104;52.744;15.242;2022-10-16T05:53:42;100699.08;;;18.65;59.36
70555;BME280;58104;52.744;15.242;2022-10-16T05:56:09;100707.26;;;18.36;60.68
70555;BME280;58104;52.744;15.242;2022-10-16T05:58:34;100717.35;;;18.55;60.12
70555;BME280;58104;52.744;15.242;2022-10-16T06:01:00;100720.65;;;18.46;60.11
70555;BME280;58104;52.744;15.242;2022-10-16T06:03:23;100721.81;;;18.76;59.69
70555;BME280;58104;52.744;15.242;2022-10-16T06:05:49;100723.19;;;18.56;60.17
70555;BME280;58104;52.744;15.242;2022-10-16T06:08:14;100720.94;;;18.59;60.30
70555;BME280;58104;52.744;15.242;2022-10-16T06:10:39;100724.02;;;18.67;59.87
70555;BME280;58104;52.744;15.242;2022-10-16T06:13:05;100729.40;;;18.59;59.79
70555;BME280;58104;52.744;15.242;2022-10-16T06:15:30;100734.26;;;18.63;59.91
70555;BME280;58104;52.744;15.242;2022-10-16T06:17:56;100745.78;;;18.30;61.08
70555;BME280;58104;52.744;15.242;2022-10-16T06:20:21;100747.30;;;18.73;59.99
70555;BME280;58104;52.744;15.242;2022-10-16T06:22:46;100753.85;;;18.48;60.89
70555;BME280;58104;52.744;15.242;2022-10-16T06:25:11;100762.97;;;18.78;59.44
70555;BME280;58104;52.744;15.242;2022-10-16T06:27:39;100758.95;;;18.59;59.84
70555;BME280;58104;52.744;15.242;2022-10-16T06:30:02;100751.72;;;18.73;59.11
70555;BME280;58104;52.744;15.242;2022-10-16T06:32:27;100753.22;;;18.99;58.05
70555;BME280;58104;52.744;15.242;2022-10-16T06:34:53;100758.45;;;18.71;58.71
70555;BME280;58104;52.744;15.242;2022-10-16T06:37:18;100773.00;;;18.48;59.82
70555;BME280;58104;52.744;15.242;2022-10-16T06:39:43;100771.25;;;18.35;60.26
70555;BME280;58104;52.744;15.242;2022-10-16T06:42:09;100761.76;;;18.59;59.60
70555;BME280;58104;52.744;15.242;2022-10-16T06:44:34;100755.66;;;19.03;58.44
70555;BME280;58104;52.744;15.242;2022-10-16T06:46:59;100758.29;;;18.60;59.56
70555;BME280;58104;52.744;15.242;2022-10-16T06:49:25;100761.59;;;18.61;59.62
70555;BME280;58104;52.744;15.242;2022-10-16T06:51:50;100771.80;;;18.60;59.71
70555;BME280;58104;52.744;15.242;2022-10-16T06:54:15;100773.95;;;18.65;59.50
70555;BME280;58104;52.744;15.242;2022-10-16T06:56:41;100777.33;;;18.71;59.39
70555;BME280;58104;52.744;15.242;2022-10-16T06:59:06;100771.56;;;19.05;58.32
70555;BME280;58104;52.744;15.242;2022-10-16T07:01:32;100770.27;;;18.76;59.09
70555;BME280;58104;52.744;15.242;2022-10-16T07:03:57;100774.21;;;19.30;57.82
70555;BME280;58104;52.744;15.242;2022-10-16T07:06:24;100772.93;;;19.35;57.68
70555;BME280;58104;52.744;15.242;2022-10-16T07:08:48;100776.58;;;19.55;56.91
70555;BME280;58104;52.744;15.242;2022-10-16T07:11:17;100785.93;;;19.62;56.75
70555;BME280;58104;52.744;15.242;2022-10-16T07:13:40;100786.91;;;19.29;57.94
70555;BME280;58104;52.744;15.242;2022-10-16T07:16:05;100789.30;;;19.71;56.69
70555;BME280;58104;52.744;15.242;2022-10-16T07:18:29;100789.70;;;19.01;58.45
70555;BME280;58104;52.744;15.242;2022-10-16T07:21:03;100789.96;;;19.11;58.36
70555;BME280;58104;52.744;15.242;2022-10-16T07:23:19;100792.31;;;19.45;57.45
70555;BME280;58104;52.744;15.242;2022-10-16T07:25:44;100801.69;;;19.77;56.42
70555;BME280;58104;52.744;15.242;2022-10-16T07:28:10;100808.07;;;19.77;56.94
70555;BME280;58104;52.744;15.242;2022-10-16T07:30:36;100808.18;;;20.11;55.77
70555;BME280;58104;52.744;15.242;2022-10-16T07:33:01;100810.81;;;20.21;55.43
70555;BME280;58104;52.744;15.242;2022-10-16T07:35:26;100816.24;;;20.05;55.87
70555;BME280;58104;52.744;15.242;2022-10-16T07:37:51;100814.09;;;20.24;55.33
70555;BME280;58104;52.744;15.242;2022-10-16T07:40:17;100807.36;;;19.88;56.42
70555;BME280;58104;52.744;15.242;2022-10-16T07:42:42;100808.26;;;19.48;57.53
70555;BME280;58104;52.744;15.242;2022-10-16T07:45:08;100821.15;;;19.60;57.45
70555;BME280;58104;52.744;15.242;2022-10-16T07:47:32;100823.48;;;19.37;58.09
70555;BME280;58104;52.744;15.242;2022-10-16T07:49:58;100824.92;;;19.99;56.52
70555;BME280;58104;52.744;15.242;2022-10-16T07:52:23;100825.43;;;19.71;57.50
70555;BME280;58104;52.744;15.242;2022-10-16T07:54:48;100827.36;;;19.84;57.33
70555;BME280;58104;52.744;15.242;2022-10-16T07:57:13;100828.38;;;19.85;57.16
70555;BME280;58104;52.744;15.242;2022-10-16T07:59:39;100835.64;;;20.03;56.48
70555;BME280;58104;52.744;15.242;2022-10-16T08:02:04;100836.53;;;20.21;56.11
70555;BME280;58104;52.744;15.242;2022-10-16T08:04:29;100841.34;;;20.36;55.50
70555;BME280;58104;52.744;15.242;2022-10-16T08:06:54;100846.81;;;20.50;55.18
70555;BME280;58104;52.744;15.242;2022-10-16T08:09:20;100855.59;;;20.96;54.07
70555;BME280;58104;52.744;15.242;2022-10-16T08:11:45;100868.81;;;20.95;53.64
70555;BME280;58104;52.744;15.242;2022-10-16T08:14:10;100872.48;;;20.80;54.24
70555;BME280;58104;52.744;15.242;2022-10-16T08:16:35;100876.18;;;20.86;54.10
70555;BME280;58104;52.744;15.242;2022-10-16T08:19:01;100877.71;;;20.57;54.69
70555;BME280;58104;52.744;15.242;2022-10-16T08:21:27;100873.03;;;20.42;55.14
70555;BME280;58104;52.744;15.242;2022-10-16T08:23:53;100864.96;;;20.27;55.66
70555;BME280;58104;52.744;15.242;2022-10-16T08:26:18;100868.86;;;20.48;55.74
70555;BME280;58104;52.744;15.242;2022-10-16T08:28:43;100868.27;;;20.20;56.10
70555;BME280;58104;52.744;15.242;2022-10-16T08:31:09;100866.65;;;20.26;56.26
70555;BME280;58104;52.744;15.242;2022-10-16T08:33:34;100881.10;;;20.39;55.91
70555;BME280;58104;52.744;15.242;2022-10-16T08:35:59;100897.33;;;20.25;56.01
70555;BME280;58104;52.744;15.242;2022-10-16T08:38:25;100894.68;;;20.22;55.89
70555;BME280;58104;52.744;15.242;2022-10-16T08:40:50;100888.85;;;20.28;55.87
70555;BME280;58104;52.744;15.242;2022-10-16T08:43:28;100884.26;;;20.41;55.59
70555;BME280;58104;52.744;15.242;2022-10-16T08:45:49;100882.12;;;20.59;54.82
70555;BME280;58104;52.744;15.242;2022-10-16T08:48:16;100878.18;;;20.57;54.59
70555;BME280;58104;52.744;15.242;2022-10-16T08:50:32;100873.60;;;21.12;53.24
70555;BME280;58104;52.744;15.242;2022-10-16T08:52:58;100873.10;;;21.61;52.11
70555;BME280;58104;52.744;15.242;2022-10-16T08:55:30;100866.49;;;21.70;51.92
70555;BME280;58104;52.744;15.242;2022-10-16T08:57:48;100858.68;;;22.04;51.38
70555;BME280;58104;52.744;15.242;2022-10-16T09:00:14;100868.44;;;22.45;50.20
70555;BME280;58104;52.744;15.242;2022-10-16T09:02:43;100876.84;;;22.43;50.25
70555;BME280;58104;52.744;15.242;2022-10-16T09:05:14;100877.51;;;22.27;50.17
70555;BME280;58104;52.744;15.242;2022-10-16T09:07:32;100883.79;;;22.12;50.76
70555;BME280;58104;52.744;15.242;2022-10-16T09:10:08;100894.71;;;22.43;49.92
70555;BME280;58104;52.744;15.242;2022-10-16T09:12:26;100896.48;;;22.31;50.37
70555;BME280;58104;52.744;15.242;2022-10-16T09:14:55;100893.97;;;21.79;51.12
70555;BME280;58104;52.744;15.242;2022-10-16T09:17:22;100886.94;;;21.43;52.12
70555;BME280;58104;52.744;15.242;2022-10-16T09:19:39;100879.16;;;21.62;52.00
70555;BME280;58104;52.744;15.242;2022-10-16T09:22:09;100864.88;;;21.58;52.07
70555;BME280;58104;52.744;15.242;2022-10-16T09:24:27;100872.56;;;21.53;52.25
70555;BME280;58104;52.744;15.242;2022-10-16T09:26:52;100880.36;;;21.67;52.16
70555;BME280;58104;52.744;15.242;2022-10-16T09:29:20;100875.60;;;21.44;51.97
70555;BME280;58104;52.744;15.242;2022-10-16T09:31:44;100881.03;;;21.48;52.52
70555;BME280;58104;52.744;15.242;2022-10-16T09:34:17;100881.21;;;21.43;52.21
70555;BME280;58104;52.744;15.242;2022-10-16T09:36:39;100883.07;;;21.33;52.24
70555;BME280;58104;52.744;15.242;2022-10-16T09:39:05;100883.36;;;21.14;52.91
70555;BME280;58104;52.744;15.242;2022-10-16T09:41:25;100877.52;;;21.03;53.41
70555;BME280;58104;52.744;15.242;2022-10-16T09:43:53;100877.89;;;20.91;54.07
70555;BME280;58104;52.744;15.242;2022-10-16T09:46:24;100882.77;;;20.89;54.46
70555;BME280;58104;52.744;15.242;2022-10-16T09:48:44;100885.92;;;20.97;54.27
70555;BME280;58104;52.744;15.242;2022-10-16T09:51:16;100887.24;;;20.91;54.03
70555;BME280;58104;52.744;15.242;2022-10-16T09:53:38;100886.90;;;20.96;53.86
70555;BME280;58104;52.744;15.242;2022-10-16T09:55:57;100885.19;;;21.04;54.02
70555;BME280;58104;52.744;15.242;2022-10-16T09:58:23;100883.23;;;20.95;54.59
70555;BME280;58104;52.744;15.242;2022-10-16T10:00:51;100880.79;;;20.98;54.22
70555;BME280;58104;52.744;15.242;2022-10-16T10:03:29;100872.11;;;20.91;54.67
70555;BME280;58104;52.744;15.242;2022-10-16T10:05:39;100874.54;;;20.88;54.87
70555;BME280;58104;52.744;15.242;2022-10-16T10:08:04;100874.40;;;20.73;55.19
70555;BME280;58104;52.744;15.242;2022-10-16T10:10:31;100875.98;;;20.85;54.95
70555;BME280;58104;52.744;15.242;2022-10-16T10:12:55;100880.49;;;20.78;55.28
70555;BME280;58104;52.744;15.242;2022-10-16T10:15:21;100885.75;;;21.18;54.19
70555;BME280;58104;52.744;15.242;2022-10-16T10:17:47;100886.98;;;21.49;53.49
70555;BME280;58104;52.744;15.242;2022-10-16T10:22:41;100895.26;;;21.88;52.10
70555;BME280;58104;52.744;15.242;2022-10-16T10:25:14;100897.07;;;21.75;52.20
70555;BME280;58104;52.744;15.242;2022-10-16T10:27:34;100896.90;;;21.57;52.80
70555;BME280;58104;52.744;15.242;2022-10-16T10:29:59;100901.98;;;22.16;51.92
70555;BME280;58104;52.744;15.242;2022-10-16T10:32:26;100909.33;;;22.68;50.39
70555;BME280;58104;52.744;15.242;2022-10-16T10:34:54;100912.04;;;22.61;50.36
70555;BME280;58104;52.744;15.242;2022-10-16T10:37:18;100909.45;;;22.03;52.11
70555;BME280;58104;52.744;15.242;2022-10-16T10:39:38;100905.25;;;21.86;52.32
70555;BME280;58104;52.744;15.242;2022-10-16T10:42:09;100913.21;;;21.71;52.81
70555;BME280;58104;52.744;15.242;2022-10-16T10:44:32;100910.47;;;21.38;54.32
70555;BME280;58104;52.744;15.242;2022-10-16T10:46:51;100913.19;;;21.22;54.71
70555;BME280;58104;52.744;15.242;2022-10-16T10:49:28;100905.74;;;21.15;54.77
70555;BME280;58104;52.744;15.242;2022-10-16T10:51:44;100905.54;;;21.16;54.92
70555;BME280;58104;52.744;15.242;2022-10-16T10:54:14;100911.26;;;21.45;54.12
70555;BME280;58104;52.744;15.242;2022-10-16T10:56:42;100905.06;;;21.60;53.91
70555;BME280;58104;52.744;15.242;2022-10-16T10:59:05;100906.02;;;21.45;54.14
70555;BME280;58104;52.744;15.242;2022-10-16T11:01:28;100905.99;;;21.45;54.00
70555;BME280;58104;52.744;15.242;2022-10-16T11:03:57;100906.11;;;21.69;53.67
70555;BME280;58104;52.744;15.242;2022-10-16T11:06:16;100914.10;;;21.79;53.16
70555;BME280;58104;52.744;15.242;2022-10-16T11:08:42;100921.24;;;21.49;53.50
70555;BME280;58104;52.744;15.242;2022-10-16T11:11:08;100930.34;;;21.31;54.14
70555;BME280;58104;52.744;15.242;2022-10-16T11:13:32;100920.36;;;21.14;54.64
70555;BME280;58104;52.744;15.242;2022-10-16T11:15:58;100916.94;;;21.25;54.13
70555;BME280;58104;52.744;15.242;2022-10-16T11:18:22;100907.68;;;21.30;54.09
70555;BME280;58104;52.744;15.242;2022-10-16T11:20:49;100920.04;;;21.35;53.88
70555;BME280;58104;52.744;15.242;2022-10-16T11:23:14;100933.78;;;21.45;53.36
70555;BME280;58104;52.744;15.242;2022-10-16T11:25:35;100923.96;;;21.33;53.60
70555;BME280;58104;52.744;15.242;2022-10-16T11:28:03;100930.22;;;21.52;53.42
70555;BME280;58104;52.744;15.242;2022-10-16T11:30:28;100928.43;;;21.47;53.05
70555;BME280;58104;52.744;15.242;2022-10-16T11:33:02;100925.47;;;21.25;53.60
70555;BME280;58104;52.744;15.242;2022-10-16T11:35:21;100928.23;;;20.99;54.47
70555;BME280;58104;52.744;15.242;2022-10-16T11:37:44;100937.03;;;21.11;54.10
70555;BME280;58104;52.744;15.242;2022-10-16T11:40:18;100931.81;;;21.01;54.39
70555;BME280;58104;52.744;15.242;2022-10-16T11:42:37;100923.35;;;21.08;54.24
70555;BME280;58104;52.744;15.242;2022-10-16T11:45:02;100931.68;;;21.02;54.38
70555;BME280;58104;52.744;15.242;2022-10-16T11:47:30;100936.29;;;20.94;54.44
70555;BME280;58104;52.744;15.242;2022-10-16T11:49:51;100936.15;;;20.69;55.15
70555;BME280;58104;52.744;15.242;2022-10-16T11:52:19;100934.60;;;20.76;54.99
70555;BME280;58104;52.744;15.242;2022-10-16T11:54:44;100945.79;;;21.07;54.29
70555;BME280;58104;52.744;15.242;2022-10-16T11:57:12;100946.95;;;21.38;53.37
70555;BME280;58104;52.744;15.242;2022-10-16T11:59:33;100942.13;;;21.77;52.57
70555;BME280;58104;52.744;15.242;2022-10-16T12:02:00;100947.98;;;21.68;52.35
70555;BME280;58104;52.744;15.242;2022-10-16T12:04:25;100950.20;;;22.41;50.54
70555;BME280;58104;52.744;15.242;2022-10-16T12:06:49;100943.05;;;23.11;48.33
70555;BME280;58104;52.744;15.242;2022-10-16T12:09:21;100938.72;;;23.60;47.28
70555;BME280;58104;52.744;15.242;2022-10-16T12:11:38;100936.81;;;23.91;46.44
70555;BME280;58104;52.744;15.242;2022-10-16T12:16:27;100946.09;;;24.55;44.77
70555;BME280;58104;52.744;15.242;2022-10-16T12:21:18;100942.87;;;24.85;43.24
70555;BME280;58104;52.744;15.242;2022-10-16T12:23:48;100950.80;;;25.06;42.91
70555;BME280;58104;52.744;15.242;2022-10-16T12:26:10;100951.62;;;24.61;43.05
70555;BME280;58104;52.744;15.242;2022-10-16T12:28:34;100948.51;;;24.51;43.71
70555;BME280;58104;52.744;15.242;2022-10-16T12:31:01;100958.03;;;24.24;43.77
70555;BME280;58104;52.744;15.242;2022-10-16T12:33:26;100966.51;;;23.81;44.38
70555;BME280;58104;52.744;15.242;2022-10-16T12:35:50;100954.16;;;23.74;44.77
70555;BME280;58104;52.744;15.242;2022-10-16T12:38:17;100954.05;;;24.20;43.93